T/t Due Process — WDJ4382 — position and weather

sailwx.info

Track history (hours):
 
Tides and Currents Weather Stations Pressure Air Temp Water Temp Dewpoint Dewpoint Depression Visibility Wind Speed Wind Dir Waves Ship Positions

T/t Due Process

Owner: Morrison, Freddy A, Deerfield Beach, FL. More information available from US FCC via Universal Licensing System and Coast Guard Vessel Documentation Center.

Last reported at 2018-Jul-07 22:12 UTC. Time now 2018-Jul-22 02:51 UTC.
Position N 26°15' W 080°01'.
Warning: this ship's position is 14 days out of date.

Length 13 m.

Type: Pleasure craft. MMSI: 367777160.

Date/timePositionNaut miles runAvg speedWind from/ knotsBaromVisibWave heightAir tempDewpointWater temp
2018-Jul-07 22:12N 26°15' W 080°01'1223.6
2018-Jul-07 21:40N 26°10' W 079°48'1 7.2
2018-Jul-07 21:30N 26°09' W 079°47'2 2.2
2018-Jul-07 20:21N 26°06' W 079°47'2 4.5
2018-Jul-07 19:52N 26°08' W 079°49'2 1.9
2018-Jul-07 19:01N 26°06' W 079°49'0 2.4
2018-Jul-07 18:59N 26°06' W 079°49'3 0.8
2018-Jul-07 15:49N 26°04' W 079°47'2 4.3
2018-Jul-07 15:27N 26°02' W 079°48'5 1.0
2018-Jul-07 10:59N 26°05' W 079°52'  
2018-Jul-01 21:47N 26°13' W 079°60'1122.5
2018-Jul-01 21:17N 26°08' W 079°49'2 2.6
2018-Jul-01 20:36N 26°07' W 079°49'1 4.9
2018-Jul-01 20:27N 26°07' W 079°49'1 2.5
2018-Jul-01 19:58N 26°06' W 079°49'1 0.6
2018-Jul-01 18:39N 26°07' W 079°48'1 2.0
2018-Jul-01 18:16N 26°06' W 079°49'1 2.3
2018-Jul-01 17:50N 26°07' W 079°49'1 3.4
2018-Jul-01 17:29N 26°06' W 079°49'  
Track history (hours):
 
Tides and Currents Weather Stations Pressure Air Temp Water Temp Dewpoint Dewpoint Depression Visibility Wind Speed Wind Dir Waves Ship Positions

T/t Due Process

Owner: Morrison, Freddy A, Deerfield Beach, FL. More information available from US FCC via Universal Licensing System and Coast Guard Vessel Documentation Center.

Last reported at 2018-Jul-07 22:12 UTC. Time now 2018-Jul-22 02:51 UTC.
Position N 26°15' W 080°01'.
Warning: this ship's position is 14 days out of date.

Length 13 m.

Type: Pleasure craft. MMSI: 367777160.

Date/timePositionNaut miles runAvg speedWind from/ knotsBaromVisibWave heightAir tempDewpointWater temp
2018-Jul-07 22:12N 26°15' W 080°01'1223.6
2018-Jul-07 21:40N 26°10' W 079°48'1 7.2
2018-Jul-07 21:30N 26°09' W 079°47'2 2.2
2018-Jul-07 20:21N 26°06' W 079°47'2 4.5
2018-Jul-07 19:52N 26°08' W 079°49'2 1.9
2018-Jul-07 19:01N 26°06' W 079°49'0 2.4
2018-Jul-07 18:59N 26°06' W 079°49'3 0.8
2018-Jul-07 15:49N 26°04' W 079°47'2 4.3
2018-Jul-07 15:27N 26°02' W 079°48'5 1.0
2018-Jul-07 10:59N 26°05' W 079°52'  
2018-Jul-01 21:47N 26°13' W 079°60'1122.5
2018-Jul-01 21:17N 26°08' W 079°49'2 2.6
2018-Jul-01 20:36N 26°07' W 079°49'1 4.9
2018-Jul-01 20:27N 26°07' W 079°49'1 2.5
2018-Jul-01 19:58N 26°06' W 079°49'1 0.6
2018-Jul-01 18:39N 26°07' W 079°48'1 2.0
2018-Jul-01 18:16N 26°06' W 079°49'1 2.3
2018-Jul-01 17:50N 26°07' W 079°49'1 3.4
2018-Jul-01 17:29N 26°06' W 079°49'  

Dump ship's entire track history